Time;durP1;ratioP1;P1;durP2;ratioP2;P2;SDS_P1;SDS_P2;PMS_P1;PMS_P2;Temp;Humidity;BMP_temperature;BMP_pressure;BME280_temperature;BME280_humidity;BME280_pressure;Samples;Min_cycle;Max_cycle;Signal;HPM_P1;HPM_P2
2023/05/29 00:01:31;;;;;;;1999.90;999.90;;;;;;;15.94;100.00;97806.22;5050707;28;20033;-79
2023/05/29 00:03:56;;;;;;;1999.90;999.90;;;;;;;15.94;100.00;97805.44;5052390;28;20390;-79
2023/05/29 00:06:22;;;;;;;1999.90;999.90;;;;;;;15.92;99.27;97813.22;5052698;28;20020;-77
2023/05/29 00:08:47;;;;;;;1999.90;999.90;;;;;;;15.93;97.55;97804.63;5055143;28;20056;-78
2023/05/29 00:11:13;;;;;;;1999.90;999.90;;;;;;;15.86;97.91;97809.03;5051413;28;20052;-78
2023/05/29 00:13:38;;;;;;;1999.90;999.90;;;;;;;15.82;97.17;97806.13;5051226;28;20032;-79
2023/05/29 00:16:04;;;;;;;1999.90;999.90;;;;;;;15.71;98.04;97807.66;5052718;28;20036;-81
2023/05/29 00:18:30;;;;;;;1999.90;999.90;;;;;;;15.67;99.00;97798.44;5059895;28;20017;-79
2023/05/29 00:20:55;;;;;;;1999.90;999.90;;;;;;;15.72;98.23;97802.97;5078849;28;20032;-79
2023/05/29 00:23:21;;;;;;;1999.90;999.90;;;;;;;15.72;97.67;97814.81;5080073;28;20033;-79
2023/05/29 00:25:47;;;;;;;1999.90;999.90;;;;;;;15.67;98.39;97806.72;5074256;28;20028;-79
2023/05/29 00:28:12;;;;;;;1999.90;999.90;;;;;;;15.60;97.60;97795.38;5072715;28;20052;-79
2023/05/29 00:30:38;;;;;;;1999.90;999.90;;;;;;;15.47;99.97;97801.91;5072695;28;20029;-79
2023/05/29 00:33:04;;;;;;;1999.90;999.90;;;;;;;15.39;100.00;97800.00;5052508;28;20033;-79
2023/05/29 00:35:29;;;;;;;1999.90;999.90;;;;;;;15.35;100.00;97791.56;5052559;28;20036;-80
2023/05/29 00:37:55;;;;;;;1999.90;999.90;;;;;;;15.42;100.00;97786.34;5051242;28;20115;-80
2023/05/29 00:40:20;;;;;;;1999.90;999.90;;;;;;;15.47;100.00;97786.19;5052719;28;20525;-79
2023/05/29 00:42:45;;;;;;;1999.90;999.90;;;;;;;15.43;100.00;97787.97;5052659;28;20025;-78
2023/05/29 00:45:10;;;;;;;1999.90;999.90;;;;;;;15.39;100.00;97787.03;5050968;28;20755;-78
2023/05/29 00:47:36;;;;;;;1999.90;999.90;;;;;;;15.38;100.00;97795.63;5052475;28;20040;-80
2023/05/29 00:50:03;;;;;;;1999.90;999.90;;;;;;;15.35;100.00;97782.47;5052975;28;20056;-78
2023/05/29 00:52:29;;;;;;;1999.90;999.90;;;;;;;15.31;100.00;97792.56;5058757;28;20032;-78
2023/05/29 00:54:55;;;;;;;1999.90;999.90;;;;;;;15.24;100.00;97789.50;5055070;28;20038;-77
2023/05/29 00:57:21;;;;;;;1999.90;999.90;;;;;;;15.27;100.00;97794.38;5052241;28;20059;-79
2023/05/29 00:59:47;;;;;;;1999.90;999.90;;;;;;;15.26;100.00;97795.50;5050287;28;20059;-79
2023/05/29 01:02:14;;;;;;;1999.90;999.90;;;;;;;15.26;100.00;97787.22;5052145;28;20112;-75
2023/05/29 01:04:40;;;;;;;1999.90;999.90;;;;;;;15.35;100.00;97788.00;5050555;28;20024;-78
2023/05/29 01:07:06;;;;;;;1999.90;999.90;;;;;;;15.34;100.00;97789.97;5050764;28;20421;-78
2023/05/29 01:09:34;;;;;;;1999.90;999.90;;;;;;;15.32;100.00;97788.66;5051939;28;20033;-78
2023/05/29 01:12:40;;;;;;;1999.90;999.90;;;;;;;15.22;100.00;97789.03;5051652;28;20045;-79
2023/05/29 01:15:24;;;;;;;1999.90;999.90;;;;;;;15.32;100.00;97799.69;5029542;28;20534;-78
2023/05/29 01:18:08;;;;;;;1999.90;999.90;;;;;;;15.23;100.00;97791.47;5029676;28;20041;-78
2023/05/29 01:21:14;;;;;;;1999.90;999.90;;;;;;;15.10;100.00;97792.47;5046225;28;20045;-81
2023/05/29 01:24:02;;;;;;;1999.90;999.90;;;;;;;15.03;100.00;97787.44;5012996;28;20043;-82
2023/05/29 01:27:00;;;;;;;1999.90;999.90;;;;;;;15.01;100.00;97795.25;5049676;28;20056;-78
2023/05/29 01:29:28;;;;;;;1999.90;999.90;;;;;;;15.05;100.00;97791.84;5051825;28;20120;-79
2023/05/29 01:31:55;;;;;;;1999.90;999.90;;;;;;;15.07;100.00;97793.13;5050361;28;20420;-80
2023/05/29 01:34:21;;;;;;;1999.90;999.90;;;;;;;15.14;100.00;97792.63;5050297;28;20083;-79
2023/05/29 01:36:46;;;;;;;1999.90;999.90;;;;;;;15.10;100.00;97786.16;5050481;28;20033;-79
2023/05/29 01:39:12;;;;;;;1999.90;999.90;;;;;;;15.00;100.00;97788.09;5051175;28;20135;-81
2023/05/29 01:41:52;;;;;;;1999.90;999.90;;;;;;;14.87;100.00;97791.88;5051587;28;20067;-82
2023/05/29 01:44:18;;;;;;;1999.90;999.90;;;;;;;14.69;100.00;97784.00;5051238;28;20115;-79
2023/05/29 01:46:45;;;;;;;1999.90;999.90;;;;;;;14.63;100.00;97786.06;5050045;28;20482;-80
2023/05/29 01:49:11;;;;;;;1999.90;999.90;;;;;;;14.54;100.00;97778.97;5049897;28;20036;-81
2023/05/29 01:51:38;;;;;;;1999.90;999.90;;;;;;;14.51;100.00;97788.69;5050229;28;20029;-80
2023/05/29 01:54:03;;;;;;;1999.90;999.90;;;;;;;14.52;100.00;97793.06;5049609;28;20035;-81
2023/05/29 01:56:30;;;;;;;1999.90;999.90;;;;;;;14.55;100.00;97781.41;5051359;28;20406;-78
2023/05/29 01:58:56;;;;;;;1999.90;999.90;;;;;;;14.62;100.00;97789.97;5051232;28;20052;-78
2023/05/29 02:01:22;;;;;;;1999.90;999.90;;;;;;;14.62;100.00;97781.72;5050068;28;20557;-78
2023/05/29 02:03:48;;;;;;;1999.90;999.90;;;;;;;14.58;100.00;97783.50;5051119;28;20120;-81
2023/05/29 02:06:13;;;;;;;1999.90;999.90;;;;;;;14.60;100.00;97791.44;5049737;28;20028;-80
2023/05/29 02:08:39;;;;;;;1999.90;999.90;;;;;;;14.48;100.00;97787.38;5049664;28;20128;-80
2023/05/29 02:11:47;;;;;;;1999.90;999.90;;;;;;;14.52;100.00;97787.56;5050399;28;20049;-80
2023/05/29 02:17:38;;;;;;;1999.90;999.90;;;;;;;14.42;100.00;97782.38;5048407;28;20071;-83
2023/05/29 02:20:04;;;;;;;1999.90;999.90;;;;;;;14.36;100.00;97778.16;5031766;28;20041;-80
2023/05/29 02:22:29;;;;;;;1999.90;999.90;;;;;;;14.21;100.00;97771.19;5048412;28;20033;-78
2023/05/29 02:24:55;;;;;;;1999.90;999.90;;;;;;;14.21;100.00;97779.44;5048305;28;20513;-80
2023/05/29 02:27:20;;;;;;;1999.90;999.90;;;;;;;14.10;100.00;97780.06;5048090;28;20048;-79
2023/05/29 02:29:46;;;;;;;1999.90;999.90;;;;;;;14.11;100.00;97782.50;5031542;28;20128;-80
2023/05/29 02:32:11;;;;;;;1999.90;999.90;;;;;;;14.10;100.00;97775.38;5048187;28;20033;-81
2023/05/29 02:34:37;;;;;;;1999.90;999.90;;;;;;;14.14;100.00;97776.34;5031689;28;20133;-78
2023/05/29 02:37:02;;;;;;;1999.90;999.90;;;;;;;14.22;100.00;97777.50;5031566;28;20545;-78
2023/05/29 02:39:28;;;;;;;1999.90;999.90;;;;;;;14.28;100.00;97781.72;5048199;28;20041;-79
2023/05/29 02:41:54;;;;;;;1999.90;999.90;;;;;;;14.23;100.00;97781.84;5048077;28;20032;-77
2023/05/29 02:44:20;;;;;;;1999.90;999.90;;;;;;;14.24;100.00;97786.22;5047934;28;20052;-76
2023/05/29 02:46:45;;;;;;;1999.90;999.90;;;;;;;14.21;100.00;97786.88;5050751;28;20036;-76
2023/05/29 02:49:10;;;;;;;1999.90;999.90;;;;;;;14.36;100.00;97791.94;5056324;28;20089;-79
2023/05/29 02:51:37;;;;;;;1999.90;999.90;;;;;;;14.23;100.00;97782.66;5056865;28;20036;-77
2023/05/29 02:54:02;;;;;;;1999.90;999.90;;;;;;;14.15;100.00;97782.66;5031506;28;20037;-79
2023/05/29 02:56:28;;;;;;;1999.90;999.90;;;;;;;14.15;100.00;97788.16;5031473;28;20041;-80
2023/05/29 02:58:53;;;;;;;1999.90;999.90;;;;;;;14.14;100.00;97792.84;5032176;28;20061;-79
2023/05/29 03:01:19;;;;;;;1999.90;999.90;;;;;;;14.07;100.00;97792.53;5039094;28;20033;-80
2023/05/29 03:03:44;;;;;;;1999.90;999.90;;;;;;;13.92;100.00;97796.56;5049673;28;20041;-78
2023/05/29 03:06:12;;;;;;;1999.90;999.90;;;;;;;14.00;100.00;97794.97;5031267;28;20059;-77
2023/05/29 03:08:40;;;;;;;1999.90;999.90;;;;;;;14.01;100.00;97787.50;5047786;28;20037;-78
2023/05/29 03:11:10;;;;;;;1999.90;999.90;;;;;;;14.05;100.00;97789.28;5047859;28;20072;-77
2023/05/29 03:14:00;;;;;;;1999.90;999.90;;;;;;;13.90;100.00;97798.81;5047893;28;20040;-81
2023/05/29 03:16:29;;;;;;;1999.90;999.90;;;;;;;13.88;100.00;97794.75;5042715;28;20091;-82
2023/05/29 03:22:21;;;;;;;1999.90;999.90;;;;;;;13.85;100.00;97793.44;5052316;28;20539;-80
2023/05/29 03:24:48;;;;;;;1999.90;999.90;;;;;;;13.92;100.00;97793.00;5053907;28;20508;-78
2023/05/29 03:27:13;;;;;;;1999.90;999.90;;;;;;;13.87;100.00;97795.91;5053869;28;20032;-80
2023/05/29 03:29:39;;;;;;;1999.90;999.90;;;;;;;13.85;100.00;97793.44;5052077;28;20033;-79
2023/05/29 03:32:04;;;;;;;1999.90;999.90;;;;;;;13.94;100.00;97796.22;5053926;28;20029;-79
2023/05/29 03:34:30;;;;;;;1999.90;999.90;;;;;;;14.05;100.00;97797.53;5045912;28;20034;-82
2023/05/29 03:36:56;;;;;;;1999.90;999.90;;;;;;;14.14;100.00;97800.28;5032758;28;20439;-82
2023/05/29 03:39:22;;;;;;;1999.90;999.90;;;;;;;14.24;100.00;97787.03;5040586;28;20025;-79
2023/05/29 03:41:47;;;;;;;1999.90;999.90;;;;;;;14.52;100.00;97797.75;5052367;28;20021;-77
2023/05/29 03:44:12;;;;;;;1999.90;999.90;;;;;;;14.76;100.00;97798.03;5052859;28;20477;-82
2023/05/29 03:46:38;;;;;;;1999.90;999.90;;;;;;;15.19;100.00;97807.03;5053442;28;20452;-81
2023/05/29 03:49:03;;;;;;;1999.90;999.90;;;;;;;15.49;100.00;97805.19;5053556;28;20035;-79
2023/05/29 03:51:28;;;;;;;1999.90;999.90;;;;;;;15.63;100.00;97818.75;5054015;28;20025;-81
2023/05/29 03:54:50;;;;;;;1999.90;999.90;;;;;;;15.64;100.00;97807.38;5053221;28;20126;-83
2023/05/29 03:57:16;;;;;;;1999.90;999.90;;;;;;;15.45;100.00;97810.50;5045470;28;20036;-80
2023/05/29 03:59:41;;;;;;;1999.90;999.90;;;;;;;15.95;100.00;97818.88;5052964;28;20120;-79
2023/05/29 04:02:06;;;;;;;1999.90;999.90;;;;;;;16.02;100.00;97812.84;5051626;28;20020;-79
2023/05/29 04:04:32;;;;;;;1999.90;999.90;;;;;;;15.70;100.00;97810.75;5052851;28;20404;-80
2023/05/29 04:06:57;;;;;;;1999.90;999.90;;;;;;;15.49;100.00;97805.19;5053123;28;20508;-80
2023/05/29 04:09:22;;;;;;;1999.90;999.90;;;;;;;15.40;100.00;97807.13;5051692;28;20036;-80
2023/05/29 04:11:48;;;;;;;1999.90;999.90;;;;;;;15.49;100.00;97816.19;5052834;28;20489;-81
2023/05/29 04:17:27;;;;;;;1999.90;999.90;;;;;;;15.70;100.00;97817.06;5051103;28;20040;-80
2023/05/29 04:19:53;;;;;;;1999.90;999.90;;;;;;;15.98;100.00;97825.69;5053066;28;20021;-81
2023/05/29 04:22:19;;;;;;;1999.90;999.90;;;;;;;16.22;100.00;97827.81;5071721;28;20025;-78
2023/05/29 04:24:45;;;;;;;1999.90;999.90;;;;;;;16.19;100.00;97828.50;5051092;28;20056;-77
2023/05/29 04:27:12;;;;;;;1999.90;999.90;;;;;;;16.14;100.00;97826.72;5053037;28;20036;-77
2023/05/29 04:29:40;;;;;;;1999.90;999.90;;;;;;;16.35;100.00;97832.28;5052675;28;20028;-74
2023/05/29 04:32:08;;;;;;;1999.90;999.90;;;;;;;16.84;100.00;97850.75;5050837;28;20044;-81
2023/05/29 04:34:34;;;;;;;1999.90;999.90;;;;;;;17.32;100.00;97836.28;5051620;28;20120;-80
2023/05/29 04:37:02;;;;;;;1999.90;999.90;;;;;;;17.63;100.00;97839.41;5052275;28;20070;-79
2023/05/29 04:39:28;;;;;;;1999.90;999.90;;;;;;;17.25;100.00;97843.53;5052484;28;20066;-79
2023/05/29 04:41:53;;;;;;;1999.90;999.90;;;;;;;16.60;100.00;97839.59;5052681;28;20268;-78
2023/05/29 04:44:18;;;;;;;1999.90;999.90;;;;;;;16.21;100.00;97832.53;5053093;28;20126;-79
2023/05/29 04:46:44;;;;;;;1999.90;999.90;;;;;;;16.13;100.00;97836.16;5053608;28;20559;-79
2023/05/29 04:49:10;;;;;;;1999.90;999.90;;;;;;;16.39;100.00;97839.53;5053261;28;20040;-78
2023/05/29 04:51:36;;;;;;;1999.90;999.90;;;;;;;17.05;100.00;97836.91;5051767;28;20037;-79
2023/05/29 04:54:02;;;;;;;1999.90;999.90;;;;;;;18.10;98.18;97842.53;5051026;28;20037;-78
2023/05/29 04:56:46;;;;;;;1999.90;999.90;;;;;;;18.07;97.39;97857.03;5053863;28;20029;-78
2023/05/29 04:59:11;;;;;;;1999.90;999.90;;;;;;;17.40;100.00;97852.00;5050930;28;20036;-76
2023/05/29 05:01:38;;;;;;;1999.90;999.90;;;;;;;16.98;100.00;97848.50;5052054;28;20017;-78
2023/05/29 05:04:05;;;;;;;1999.90;999.90;;;;;;;16.80;100.00;97849.81;5050909;28;20025;-80
2023/05/29 05:06:30;;;;;;;1999.90;999.90;;;;;;;16.78;100.00;97852.13;5052196;28;20028;-79
2023/05/29 05:08:56;;;;;;;1999.90;999.90;;;;;;;16.78;100.00;97845.78;5055859;28;20456;-82
2023/05/29 05:11:23;;;;;;;1999.90;999.90;;;;;;;16.93;100.00;97848.72;5055033;28;20033;-81
2023/05/29 05:13:48;;;;;;;1999.90;999.90;;;;;;;17.09;100.00;97849.72;5048184;28;20500;-81
2023/05/29 05:16:14;;;;;;;1999.90;999.90;;;;;;;17.07;100.00;97827.13;5036266;28;20030;-82
2023/05/29 05:18:39;;;;;;;1999.90;999.90;;;;;;;17.31;100.00;97842.16;5041214;28;20494;-80
2023/05/29 05:21:05;;;;;;;1999.90;999.90;;;;;;;17.23;100.00;97838.34;5043284;28;20037;-81
2023/05/29 05:23:31;;;;;;;1999.90;999.90;;;;;;;17.29;100.00;97850.78;5034229;28;20040;-81
2023/05/29 05:25:56;;;;;;;1999.90;999.90;;;;;;;17.29;100.00;97850.78;5032153;28;20013;-80
2023/05/29 05:28:21;;;;;;;1999.90;999.90;;;;;;;17.35;98.63;97848.63;5032001;28;20128;-82
2023/05/29 05:30:47;;;;;;;1999.90;999.90;;;;;;;17.19;100.00;97853.19;5034116;28;20033;-82
2023/05/29 05:33:12;;;;;;;1999.90;999.90;;;;;;;17.19;100.00;97837.41;5032552;28;20033;-82
2023/05/29 05:35:38;;;;;;;1999.90;999.90;;;;;;;17.50;98.19;97856.28;5034415;28;20026;-79
2023/05/29 05:38:03;;;;;;;1999.90;999.90;;;;;;;17.47;98.37;97848.66;5049703;28;20078;-80
2023/05/29 05:40:28;;;;;;;1999.90;999.90;;;;;;;17.50;97.86;97839.69;5050865;28;20481;-80
2023/05/29 05:42:54;;;;;;;1999.90;999.90;;;;;;;17.70;97.55;97866.47;5053483;28;20028;-82
2023/05/29 05:45:19;;;;;;;1999.90;999.90;;;;;;;17.88;94.75;97869.84;5057219;28;20553;-83
2023/05/29 05:47:46;;;;;;;1999.90;999.90;;;;;;;18.14;91.33;97860.03;5053163;28;20029;-81
2023/05/29 05:50:11;;;;;;;1999.90;999.90;;;;;;;18.09;92.56;97873.31;5058599;28;20044;-79
2023/05/29 05:52:37;;;;;;;1999.90;999.90;;;;;;;18.42;89.90;97873.97;5051285;28;20477;-77
2023/05/29 05:55:03;;;;;;;1999.90;999.90;;;;;;;18.50;88.16;97872.28;5051550;28;20048;-81
2023/05/29 05:57:28;;;;;;;1999.90;999.90;;;;;;;18.59;88.08;97870.16;5051338;28;20012;-81
2023/05/29 05:59:53;;;;;;;1999.90;999.90;;;;;;;18.45;88.98;97873.28;5050544;28;20793;-79
2023/05/29 06:02:19;;;;;;;1999.90;999.90;;;;;;;18.60;88.17;97878.16;5049590;28;20390;-80
2023/05/29 06:04:44;;;;;;;1999.90;999.90;;;;;;;18.62;87.89;97878.59;5049965;28;20039;-80
2023/05/29 06:07:09;;;;;;;1999.90;999.90;;;;;;;18.78;86.27;97872.31;5050046;28;20052;-80
2023/05/29 06:09:35;;;;;;;1999.90;999.90;;;;;;;18.76;85.46;97875.47;5049291;28;20455;-82
2023/05/29 06:12:00;;;;;;;1999.90;999.90;;;;;;;19.05;84.35;97872.34;5049405;28;20068;-79
2023/05/29 06:14:26;;;;;;;1999.90;999.90;;;;;;;19.25;83.21;97879.66;5050326;28;20031;-79
2023/05/29 06:16:53;;;;;;;1999.90;999.90;;;;;;;19.46;82.04;97876.69;5050903;28;20087;-79
2023/05/29 06:19:19;;;;;;;1999.90;999.90;;;;;;;19.96;79.19;97876.00;5050677;28;20029;-78
2023/05/29 06:21:44;;;;;;;1999.90;999.90;;;;;;;19.79;78.79;97868.06;5049021;28;20021;-78
2023/05/29 06:24:09;;;;;;;1999.90;999.90;;;;;;;19.68;78.91;97866.97;5050672;28;20025;-77
2023/05/29 06:26:36;;;;;;;1999.90;999.90;;;;;;;19.85;78.96;97874.13;5049150;28;20441;-80
2023/05/29 06:29:01;;;;;;;1999.90;999.90;;;;;;;20.04;76.95;97880.59;5049921;28;20013;-80
2023/05/29 06:31:27;;;;;;;1999.90;999.90;;;;;;;20.04;77.71;97879.78;5050310;28;20083;-78
2023/05/29 06:33:52;;;;;;;1999.90;999.90;;;;;;;20.11;77.04;97872.41;5050118;28;20028;-79
2023/05/29 06:36:17;;;;;;;1999.90;999.90;;;;;;;20.14;75.75;97874.47;5049187;28;20027;-79
2023/05/29 06:38:48;;;;;;;1999.90;999.90;;;;;;;20.23;75.12;97889.00;5050134;28;20509;-81
2023/05/29 06:41:13;;;;;;;1999.90;999.90;;;;;;;20.60;73.48;97877.59;5048965;28;20090;-77
2023/05/29 06:43:38;;;;;;;1999.90;999.90;;;;;;;;;;5049640;28;20033;-79
2023/05/29 06:46:04;;;;;;;1999.90;999.90;;;;;;;20.34;71.91;97885.69;5049103;28;20120;-81
2023/05/29 06:48:33;;;;;;;1999.90;999.90;;;;;;;20.69;71.71;97889.31;5048881;28;20031;-76
2023/05/29 06:50:59;;;;;;;1999.90;999.90;;;;;;;21.00;70.05;97893.94;5050149;28;20025;-78
2023/05/29 06:53:24;;;;;;;1999.90;999.90;;;;;;;20.90;68.92;97883.38;5050509;28;20048;-78
2023/05/29 06:55:49;;;;;;;1999.90;999.90;;;;;;;21.12;68.57;97883.50;5050141;28;20040;-79
2023/05/29 06:58:15;;;;;;;1999.90;999.90;;;;;;;21.41;68.09;97887.69;5053507;28;20036;-78
2023/05/29 07:00:40;;;;;;;1999.90;999.90;;;;;;;21.54;67.66;97886.34;5053123;28;20037;-77
2023/05/29 07:03:06;;;;;;;1999.90;999.90;;;;;;;20.87;69.44;97878.56;5052890;28;20039;-78
2023/05/29 07:05:32;;;;;;;1999.90;999.90;;;;;;;21.08;69.25;97882.59;5054148;28;20070;-78
2023/05/29 07:07:57;;;;;;;1999.90;999.90;;;;;;;20.94;69.17;97879.53;5054269;28;20386;-77
2023/05/29 07:10:22;;;;;;;1999.90;999.90;;;;;;;21.03;69.72;97879.31;5052765;28;20135;-78
2023/05/29 07:12:48;;;;;;;1999.90;999.90;;;;;;;21.66;67.21;97875.03;5053966;28;20048;-77
2023/05/29 07:15:13;;;;;;;1999.90;999.90;;;;;;;21.81;65.67;97867.75;5054445;28;20031;-77
2023/05/29 07:17:38;;;;;;;1999.90;999.90;;;;;;;22.02;64.32;97873.69;5054574;28;20029;-77
2023/05/29 07:20:07;;;;;;;1999.90;999.90;;;;;;;21.90;65.42;97873.91;5052883;28;20036;-79
2023/05/29 07:22:33;;;;;;;1999.90;999.90;;;;;;;22.33;63.38;97873.41;5054571;28;20021;-79
2023/05/29 07:24:58;;;;;;;1999.90;999.90;;;;;;;22.35;62.12;97876.66;5052203;28;21070;-78
2023/05/29 07:27:23;;;;;;;1999.90;999.90;;;;;;;22.52;61.80;97874.53;5053663;28;20035;-79
2023/05/29 07:29:49;;;;;;;1999.90;999.90;;;;;;;22.43;61.54;97878.38;5053726;28;20052;-78
2023/05/29 07:32:15;;;;;;;1999.90;999.90;;;;;;;22.20;62.35;97874.81;5053867;28;20155;-79
2023/05/29 07:34:40;;;;;;;1999.90;999.90;;;;;;;22.15;62.47;97875.13;5053764;28;20075;-75
2023/05/29 07:37:07;;;;;;;1999.90;999.90;;;;;;;22.14;62.77;97876.31;5053573;28;20111;-76
2023/05/29 07:39:34;;;;;;;1999.90;999.90;;;;;;;22.26;62.39;97864.97;5053865;28;20033;-76
2023/05/29 07:42:03;;;;;;;1999.90;999.90;;;;;;;22.68;61.53;97875.97;5055884;28;20036;-76
2023/05/29 07:44:28;;;;;;;1999.90;999.90;;;;;;;23.09;60.29;97874.13;5052514;28;20070;-79
2023/05/29 07:46:54;;;;;;;1999.90;999.90;;;;;;;23.30;58.66;97874.44;5050403;28;20025;-81
2023/05/29 07:49:20;;;;;;;1999.90;999.90;;;;;;;23.30;58.76;97874.44;5052658;28;20505;-80
2023/05/29 07:51:45;;;;;;;1999.90;999.90;;;;;;;23.24;58.81;97875.13;5052920;28;20501;-79
2023/05/29 07:54:12;;;;;;;1999.90;999.90;;;;;;;23.11;60.49;97880.16;5051814;28;20029;-77
2023/05/29 07:56:38;;;;;;;1999.90;999.90;;;;;;;24.04;55.71;97879.19;5051922;28;20409;-79
2023/05/29 07:59:04;;;;;;;1999.90;999.90;;;;;;;24.41;54.41;97877.13;5052953;28;20497;-77
2023/05/29 08:01:29;;;;;;;1999.90;999.90;;;;;;;24.44;53.81;97882.75;5053232;28;20020;-78
2023/05/29 08:03:56;;;;;;;1999.90;999.90;;;;;;;25.03;52.17;97880.75;5054287;28;20068;-80
2023/05/29 08:06:22;;;;;;;1999.90;999.90;;;;;;;25.56;50.26;97889.44;5051463;28;20064;-80
2023/05/29 08:08:47;;;;;;;1999.90;999.90;;;;;;;25.98;49.20;97883.09;5033336;28;20146;-79
2023/05/29 08:11:13;;;;;;;1999.90;999.90;;;;;;;26.39;46.03;97878.75;5052355;28;20052;-79
2023/05/29 08:13:38;;;;;;;1999.90;999.90;;;;;;;26.88;46.12;97877.09;5051002;28;20386;-78
2023/05/29 08:16:03;;;;;;;1999.90;999.90;;;;;;;29.96;39.20;97887.47;5052390;28;20025;-79
2023/05/29 08:18:31;;;;;;;1999.90;999.90;;;;;;;30.50;37.35;97896.75;5054444;28;20017;-82
2023/05/29 08:20:56;;;;;;;1999.90;999.90;;;;;;;30.60;36.29;97892.94;5054265;28;20363;-81
2023/05/29 08:23:22;;;;;;;1999.90;999.90;;;;;;;27.33;40.53;97887.41;5052177;28;20017;-80
2023/05/29 08:25:48;;;;;;;1999.90;999.90;;;;;;;27.76;41.22;97873.94;5050933;28;20774;-82
2023/05/29 08:28:15;;;;;;;1999.90;999.90;;;;;;;28.74;39.51;97880.06;5055891;28;20020;-84
2023/05/29 08:30:40;;;;;;;1999.90;999.90;;;;;;;25.89;44.49;97851.84;5056592;28;20059;-80
2023/05/29 08:33:06;;;;;;;1999.90;999.90;;;;;;;27.84;40.37;97878.34;5053080;28;20064;-81
2023/05/29 08:35:32;;;;;;;1999.90;999.90;;;;;;;28.14;40.24;97884.19;5055210;28;20029;-81
2023/05/29 08:37:57;;;;;;;1999.90;999.90;;;;;;;27.63;40.43;97870.81;5053635;28;20025;-80
2023/05/29 08:40:22;;;;;;;1999.90;999.90;;;;;;;28.94;38.69;97883.91;5052558;28;20072;-80
2023/05/29 08:42:57;;;;;;;1999.90;999.90;;;;;;;28.44;38.86;97874.31;5053086;28;20293;-79
2023/05/29 08:45:23;;;;;;;1999.90;999.90;;;;;;;28.92;37.42;97863.78;5051059;28;20128;-83
2023/05/29 08:47:53;;;;;;;1999.90;999.90;;;;;;;30.05;35.22;97870.81;5053385;28;20059;-79
2023/05/29 08:50:20;;;;;;;1999.90;999.90;;;;;;;27.76;40.01;97864.72;5051505;28;20484;-80
2023/05/29 08:52:47;;;;;;;1999.90;999.90;;;;;;;29.48;36.93;97870.78;5051978;28;20381;-79
2023/05/29 08:55:13;;;;;;;1999.90;999.90;;;;;;;28.55;37.27;97869.34;5052876;28;20076;-80
2023/05/29 08:57:39;;;;;;;1999.90;999.90;;;;;;;29.02;34.36;97876.16;5051741;28;20029;-80
2023/05/29 09:00:12;;;;;;;1999.90;999.90;;;;;;;28.64;35.42;97870.47;5051606;28;20401;-80
2023/05/29 09:02:39;;;;;;;1999.90;999.90;;;;;;;28.19;35.81;97863.25;5053334;28;20021;-78
2023/05/29 09:05:06;;;;;;;1999.90;999.90;;;;;;;27.92;36.33;97863.00;5068862;28;20021;-78
2023/05/29 09:07:32;;;;;;;1999.90;999.90;;;;;;;28.63;34.88;97862.47;5052307;28;20418;-80
2023/05/29 09:09:59;;;;;;;1999.90;999.90;;;;;;;28.15;35.23;97866.09;5051910;28;20381;-78
2023/05/29 09:12:25;;;;;;;1999.90;999.90;;;;;;;27.53;35.82;97860.44;5052898;28;20112;-80
2023/05/29 09:14:50;;;;;;;1999.90;999.90;;;;;;;28.40;35.30;97871.50;5052214;28;20490;-80
2023/05/29 09:17:16;;;;;;;1999.90;999.90;;;;;;;28.10;35.86;97871.34;5051368;28;20052;-79
2023/05/29 09:19:42;;;;;;;1999.90;999.90;;;;;;;29.16;33.58;97873.19;5052640;28;20110;-79
2023/05/29 09:22:16;;;;;;;1999.90;999.90;;;;;;;28.96;33.70;97864.53;5054342;28;20075;-80
2023/05/29 09:24:51;;;;;;;1999.90;999.90;;;;;;;28.25;35.76;97864.41;5057307;28;20028;-80
2023/05/29 09:27:17;;;;;;;1999.90;999.90;;;;;;;29.13;33.09;97879.66;5071757;28;20052;-80
2023/05/29 09:29:44;;;;;;;1999.90;999.90;;;;;;;28.45;33.31;97879.50;5052493;28;20698;-79
2023/05/29 09:32:16;;;;;;;1999.90;999.90;;;;;;;29.34;32.38;97876.63;5055412;28;20052;-81
2023/05/29 09:34:42;;;;;;;1999.90;999.90;;;;;;;29.72;31.70;97872.50;5050540;28;20029;-80
2023/05/29 09:37:09;;;;;;;1999.90;999.90;;;;;;;30.52;30.51;97873.72;5051380;28;20398;-81
2023/05/29 09:39:45;;;;;;;1999.90;999.90;;;;;;;28.56;32.97;97868.16;5051591;28;20393;-78
2023/05/29 09:42:11;;;;;;;1999.90;999.90;;;;;;;27.34;33.76;97858.09;5051192;28;20029;-78
2023/05/29 09:44:37;;;;;;;1999.90;999.90;;;;;;;27.53;33.63;97860.44;5051655;28;20127;-80
2023/05/29 09:47:03;;;;;;;1999.90;999.90;;;;;;;29.47;30.18;97869.22;5050456;28;20118;-81
2023/05/29 09:49:31;;;;;;;1999.90;999.90;;;;;;;26.97;35.13;97855.03;5051364;28;20100;-79
2023/05/29 09:51:59;;;;;;;1999.90;999.90;;;;;;;28.64;31.86;97856.41;5051318;28;20028;-81
2023/05/29 09:54:28;;;;;;;1999.90;999.90;;;;;;;29.45;31.20;97854.72;5050129;28;20033;-80
2023/05/29 09:56:55;;;;;;;1999.90;999.90;;;;;;;28.99;31.48;97862.91;5049880;28;20036;-79
2023/05/29 09:59:24;;;;;;;1999.90;999.90;;;;;;;27.25;35.09;97849.31;5052005;28;20021;-80
2023/05/29 10:02:00;;;;;;;1999.90;999.90;;;;;;;29.06;31.17;97841.09;5055271;28;20033;-81
2023/05/29 10:04:25;;;;;;;1999.90;999.90;;;;;;;28.18;31.24;97850.38;5056765;28;20029;-80
2023/05/29 10:06:52;;;;;;;1999.90;999.90;;;;;;;27.59;31.91;97847.56;5058347;28;20032;-81
2023/05/29 10:09:21;;;;;;;1999.90;999.90;;;;;;;29.16;29.10;97850.66;5050275;28;20078;-79
2023/05/29 10:11:48;;;;;;;1999.90;999.90;;;;;;;28.75;29.97;97861.97;5049432;28;20049;-80
2023/05/29 10:14:19;;;;;;;1999.90;999.90;;;;;;;28.50;30.31;97862.19;5049400;28;20527;-79
2023/05/29 10:16:50;;;;;;;1999.90;999.90;;;;;;;29.26;28.94;97855.34;5050616;28;20028;-82
2023/05/29 10:19:21;;;;;;;1999.90;999.90;;;;;;;28.62;29.63;97858.03;5051546;28;20021;-82
2023/05/29 10:21:48;;;;;;;1999.90;999.90;;;;;;;29.02;29.05;97853.63;5051045;28;20046;-80
2023/05/29 10:24:15;;;;;;;1999.90;999.90;;;;;;;28.41;30.50;97847.75;5051975;28;20029;-80
2023/05/29 10:26:43;;;;;;;1999.90;999.90;;;;;;;27.05;32.54;97848.97;5052171;28;20497;-79
2023/05/29 10:29:11;;;;;;;1999.90;999.90;;;;;;;27.09;31.93;97844.16;5051332;28;20095;-81
2023/05/29 10:31:52;;;;;;;1999.90;999.90;;;;;;;26.54;34.36;97831.81;5049200;28;20025;-80
2023/05/29 10:34:37;;;;;;;1999.90;999.90;;;;;;;25.74;31.96;97839.84;5066137;28;20111;-80
2023/05/29 10:37:21;;;;;;;1999.90;999.90;;;;;;;25.39;33.17;97828.50;5050108;28;20171;-81
2023/05/29 10:39:46;;;;;;;1999.90;999.90;;;;;;;26.13;33.02;97834.22;5049415;28;20398;-79
2023/05/29 10:42:48;;;;;;;1999.90;999.90;;;;;;;25.49;32.39;97836.19;5050493;28;20024;-81
2023/05/29 10:45:29;;;;;;;1999.90;999.90;;;;;;;25.33;32.80;97825.28;5049640;28;20040;-81
2023/05/29 10:47:54;;;;;;;1999.90;999.90;;;;;;;24.76;36.65;97829.81;5050675;28;20032;-81
2023/05/29 10:50:41;;;;;;;1999.90;999.90;;;;;;;24.88;38.06;97825.91;5051286;28;20119;-79
2023/05/29 10:53:07;;;;;;;1999.90;999.90;;;;;;;25.03;36.23;97816.38;5046482;28;20114;-79
2023/05/29 10:55:37;;;;;;;1999.90;999.90;;;;;;;24.99;35.57;97812.78;5052267;28;20033;-80
2023/05/29 10:58:07;;;;;;;1999.90;999.90;;;;;;;25.04;35.94;97807.59;5050823;28;20052;-78
2023/05/29 11:00:32;;;;;;;1999.90;999.90;;;;;;;25.08;34.26;97799.19;5049300;28;20116;-79
2023/05/29 11:03:06;;;;;;;1999.90;999.90;;;;;;;25.29;33.75;97815.25;5050139;28;20127;-81
2023/05/29 11:05:31;;;;;;;1999.90;999.90;;;;;;;25.12;36.42;97807.63;5050547;28;20036;-79